This is the latest recevied weather packets stored in our database for station/object JI6QOV-13. If no packets are shown the sender has not sent any weather packets the latest 10 day(s).
| Time | Temp. | Humidity | Pressure | Rain* | Wind** | Luminosity | Snow |
|---|---|---|---|---|---|---|---|
| 1777729635 | 18.89° C | 24% | 997 hPa | 0 mm | - | - | - |
| 1777728435 | 18.33° C | 24% | 997 hPa | 0 mm | - | - | - |
| 1777727235 | 17.78° C | 24% | 997 hPa | 0 mm | - | - | - |
| 1777726036 | 17.78° C | 24% | 997 hPa | 0 mm | - | - | - |
| 1777724834 | 17.78° C | 24% | 997 hPa | 0 mm | - | - | - |
| 1777723635 | 17.78° C | 24% | 997 hPa | 0 mm | - | - | - |
| 1777722435 | 18.33° C | 20% | 997 hPa | 0 mm | - | - | - |
| 1777721234 | 18.33° C | 20% | 997 hPa | 0 mm | - | - | - |
| 1777720035 | 19.44° C | 17% | 997 hPa | 0 mm | - | - | - |
| 1777718834 | 19.44° C | 17% | 997 hPa | 0 mm | - | - | - |
| 1777717634 | 20° C | 15% | 997 hPa | 0 mm | - | - | - |
| 1777716435 | 20.56° C | 15% | 997 hPa | 0 mm | - | - | - |
| 1777715234 | 21.11° C | 14% | 997 hPa | 0 mm | - | - | - |
| 1777712835 | 22.22° C | 14% | 997 hPa | 0 mm | - | - | - |
| 1777711634 | 22.78° C | 14% | 997 hPa | 0 mm | - | - | - |
| 1777710434 | 23.33° C | 13% | 997 hPa | 0 mm | - | - | - |
| 1777709235 | 23.89° C | 13% | 997 hPa | 0 mm | - | - | - |
| 1777708034 | 24.44° C | 13% | 997 hPa | 0 mm | - | - | - |
| 1777469229 | 13.33° C | 52% | 1002 hPa | 0 mm | - | - | - |
| 1777468031 | 13.33° C | 50% | 1002 hPa | 0 mm | - | - | - |
| 1777466830 | 13.33° C | 49% | 1002 hPa | 0 mm | - | - | - |
| 1777465630 | 13.33° C | 47% | 1002 hPa | 0 mm | - | - | - |
| 1777464430 | 13.33° C | 46% | 1002 hPa | 0 mm | - | - | - |
| 1777463230 | 13.33° C | 45% | 1002 hPa | 0 mm | - | - | - |
| 1777462029 | 13.89° C | 44% | 1002 hPa | 0 mm | - | - | - |
* Rain latest hour (hover to see other rain measurements)
** Current wind speed in m/s (hover to see current wind gust speed)